sensor_id;sensor_type;location;lat;lon;timestamp;P1;durP1;ratioP1;P2;durP2;ratioP2
73980;SDS011;62348;51.412;5.436;2023-04-25T00:01:03;18.40;;;8.18;;
73980;SDS011;62348;51.412;5.436;2023-04-25T00:03:30;20.25;;;9.57;;
73980;SDS011;62348;51.412;5.436;2023-04-25T00:05:57;16.27;;;7.38;;
73980;SDS011;62348;51.412;5.436;2023-04-25T00:08:23;18.08;;;7.93;;
73980;SDS011;62348;51.412;5.436;2023-04-25T00:10:49;18.45;;;7.63;;
73980;SDS011;62348;51.412;5.436;2023-04-25T00:13:15;16.98;;;7.85;;
73980;SDS011;62348;51.412;5.436;2023-04-25T00:15:42;16.50;;;7.75;;
73980;SDS011;62348;51.412;5.436;2023-04-25T00:18:09;23.95;;;9.07;;
73980;SDS011;62348;51.412;5.436;2023-04-25T00:20:36;18.75;;;7.60;;
73980;SDS011;62348;51.412;5.436;2023-04-25T00:23:01;18.30;;;6.72;;
73980;SDS011;62348;51.412;5.436;2023-04-25T00:25:26;18.55;;;6.63;;
73980;SDS011;62348;51.412;5.436;2023-04-25T00:27:52;20.60;;;6.65;;
73980;SDS011;62348;51.412;5.436;2023-04-25T00:30:17;20.60;;;6.75;;
73980;SDS011;62348;51.412;5.436;2023-04-25T00:32:43;19.45;;;6.18;;
73980;SDS011;62348;51.412;5.436;2023-04-25T00:35:09;16.67;;;5.60;;
73980;SDS011;62348;51.412;5.436;2023-04-25T00:37:34;20.98;;;6.32;;
73980;SDS011;62348;51.412;5.436;2023-04-25T00:40:00;16.00;;;5.75;;
73980;SDS011;62348;51.412;5.436;2023-04-25T00:42:26;15.95;;;7.07;;
73980;SDS011;62348;51.412;5.436;2023-04-25T00:44:52;14.60;;;6.18;;
73980;SDS011;62348;51.412;5.436;2023-04-25T00:47:18;13.38;;;5.30;;
73980;SDS011;62348;51.412;5.436;2023-04-25T00:49:43;17.42;;;5.97;;
73980;SDS011;62348;51.412;5.436;2023-04-25T00:52:09;18.77;;;6.25;;
73980;SDS011;62348;51.412;5.436;2023-04-25T00:54:35;13.30;;;5.82;;
73980;SDS011;62348;51.412;5.436;2023-04-25T00:57:01;12.88;;;5.57;;
73980;SDS011;62348;51.412;5.436;2023-04-25T00:59:27;14.38;;;5.15;;
73980;SDS011;62348;51.412;5.436;2023-04-25T01:01:53;14.18;;;5.68;;
73980;SDS011;62348;51.412;5.436;2023-04-25T01:04:18;16.17;;;5.97;;
73980;SDS011;62348;51.412;5.436;2023-04-25T01:06:45;10.45;;;5.40;;
73980;SDS011;62348;51.412;5.436;2023-04-25T01:09:10;16.02;;;6.50;;
73980;SDS011;62348;51.412;5.436;2023-04-25T01:11:36;14.68;;;6.20;;
73980;SDS011;62348;51.412;5.436;2023-04-25T01:14:01;12.07;;;5.15;;
73980;SDS011;62348;51.412;5.436;2023-04-25T01:16:27;14.50;;;5.53;;
73980;SDS011;62348;51.412;5.436;2023-04-25T01:18:52;13.32;;;5.65;;
73980;SDS011;62348;51.412;5.436;2023-04-25T01:21:19;15.75;;;5.55;;
73980;SDS011;62348;51.412;5.436;2023-04-25T01:23:44;18.63;;;5.78;;
73980;SDS011;62348;51.412;5.436;2023-04-25T01:26:10;16.77;;;5.88;;
73980;SDS011;62348;51.412;5.436;2023-04-25T01:28:37;15.32;;;6.78;;
73980;SDS011;62348;51.412;5.436;2023-04-25T01:31:06;19.10;;;5.65;;
73980;SDS011;62348;51.412;5.436;2023-04-25T01:33:32;13.38;;;5.70;;
73980;SDS011;62348;51.412;5.436;2023-04-25T01:35:57;12.30;;;5.50;;
73980;SDS011;62348;51.412;5.436;2023-04-25T01:38:23;15.35;;;5.32;;
73980;SDS011;62348;51.412;5.436;2023-04-25T01:40:50;13.18;;;5.50;;
73980;SDS011;62348;51.412;5.436;2023-04-25T01:43:17;14.32;;;5.28;;
73980;SDS011;62348;51.412;5.436;2023-04-25T01:45:43;18.08;;;5.20;;
73980;SDS011;62348;51.412;5.436;2023-04-25T01:48:09;16.88;;;5.18;;
73980;SDS011;62348;51.412;5.436;2023-04-25T01:50:37;17.38;;;5.88;;
73980;SDS011;62348;51.412;5.436;2023-04-25T01:53:03;16.25;;;5.70;;
73980;SDS011;62348;51.412;5.436;2023-04-25T01:55:29;17.92;;;5.57;;
73980;SDS011;62348;51.412;5.436;2023-04-25T01:57:55;19.02;;;6.07;;
73980;SDS011;62348;51.412;5.436;2023-04-25T02:00:20;16.27;;;5.88;;
73980;SDS011;62348;51.412;5.436;2023-04-25T02:02:46;13.90;;;5.97;;
73980;SDS011;62348;51.412;5.436;2023-04-25T02:05:11;18.30;;;6.20;;
73980;SDS011;62348;51.412;5.436;2023-04-25T02:07:37;13.57;;;5.28;;
73980;SDS011;62348;51.412;5.436;2023-04-25T02:10:02;12.18;;;5.47;;
73980;SDS011;62348;51.412;5.436;2023-04-25T02:12:28;21.42;;;6.80;;
73980;SDS011;62348;51.412;5.436;2023-04-25T02:14:54;17.60;;;6.28;;
73980;SDS011;62348;51.412;5.436;2023-04-25T02:17:19;21.85;;;6.82;;
73980;SDS011;62348;51.412;5.436;2023-04-25T02:19:46;19.48;;;6.25;;
73980;SDS011;62348;51.412;5.436;2023-04-25T02:22:11;15.30;;;5.97;;
73980;SDS011;62348;51.412;5.436;2023-04-25T02:24:37;18.75;;;7.18;;
73980;SDS011;62348;51.412;5.436;2023-04-25T02:27:03;14.43;;;6.07;;
73980;SDS011;62348;51.412;5.436;2023-04-25T02:29:29;16.23;;;6.30;;
73980;SDS011;62348;51.412;5.436;2023-04-25T02:31:54;14.25;;;5.82;;
73980;SDS011;62348;51.412;5.436;2023-04-25T02:34:20;18.73;;;6.38;;
73980;SDS011;62348;51.412;5.436;2023-04-25T02:36:46;16.35;;;6.57;;
73980;SDS011;62348;51.412;5.436;2023-04-25T02:39:11;18.90;;;7.07;;
73980;SDS011;62348;51.412;5.436;2023-04-25T02:41:36;14.27;;;6.22;;
73980;SDS011;62348;51.412;5.436;2023-04-25T02:44:02;15.55;;;6.05;;
73980;SDS011;62348;51.412;5.436;2023-04-25T02:46:27;12.93;;;6.30;;
73980;SDS011;62348;51.412;5.436;2023-04-25T02:48:53;16.65;;;6.00;;
73980;SDS011;62348;51.412;5.436;2023-04-25T02:51:18;16.48;;;6.38;;
73980;SDS011;62348;51.412;5.436;2023-04-25T02:53:44;21.08;;;6.15;;
73980;SDS011;62348;51.412;5.436;2023-04-25T02:56:09;21.83;;;7.60;;
73980;SDS011;62348;51.412;5.436;2023-04-25T02:58:35;17.63;;;5.97;;
73980;SDS011;62348;51.412;5.436;2023-04-25T03:01:00;16.05;;;6.25;;
73980;SDS011;62348;51.412;5.436;2023-04-25T03:03:25;21.48;;;6.55;;
73980;SDS011;62348;51.412;5.436;2023-04-25T03:05:51;13.35;;;6.35;;
73980;SDS011;62348;51.412;5.436;2023-04-25T03:08:17;22.65;;;8.32;;
73980;SDS011;62348;51.412;5.436;2023-04-25T03:10:43;17.60;;;6.00;;
73980;SDS011;62348;51.412;5.436;2023-04-25T03:13:10;18.40;;;6.65;;
73980;SDS011;62348;51.412;5.436;2023-04-25T03:15:36;21.98;;;6.63;;
73980;SDS011;62348;51.412;5.436;2023-04-25T03:18:02;21.48;;;6.65;;
73980;SDS011;62348;51.412;5.436;2023-04-25T03:20:27;15.68;;;7.00;;
73980;SDS011;62348;51.412;5.436;2023-04-25T03:22:53;13.70;;;5.75;;
73980;SDS011;62348;51.412;5.436;2023-04-25T03:25:20;14.10;;;6.28;;
73980;SDS011;62348;51.412;5.436;2023-04-25T03:27:45;14.57;;;6.05;;
73980;SDS011;62348;51.412;5.436;2023-04-25T03:30:11;14.05;;;6.13;;
73980;SDS011;62348;51.412;5.436;2023-04-25T03:32:36;18.27;;;6.30;;
73980;SDS011;62348;51.412;5.436;2023-04-25T03:35:02;15.27;;;6.68;;
73980;SDS011;62348;51.412;5.436;2023-04-25T03:37:28;15.32;;;6.38;;
73980;SDS011;62348;51.412;5.436;2023-04-25T03:39:53;18.38;;;7.10;;
73980;SDS011;62348;51.412;5.436;2023-04-25T03:42:19;20.45;;;5.93;;
73980;SDS011;62348;51.412;5.436;2023-04-25T03:44:44;17.77;;;6.05;;
73980;SDS011;62348;51.412;5.436;2023-04-25T03:47:10;21.27;;;7.38;;
73980;SDS011;62348;51.412;5.436;2023-04-25T03:49:35;15.05;;;5.43;;
73980;SDS011;62348;51.412;5.436;2023-04-25T03:52:02;28.17;;;7.75;;
73980;SDS011;62348;51.412;5.436;2023-04-25T03:54:27;18.35;;;6.57;;
73980;SDS011;62348;51.412;5.436;2023-04-25T03:56:53;17.80;;;6.43;;
73980;SDS011;62348;51.412;5.436;2023-04-25T03:59:18;25.58;;;7.03;;
73980;SDS011;62348;51.412;5.436;2023-04-25T04:01:44;21.60;;;6.00;;
73980;SDS011;62348;51.412;5.436;2023-04-25T04:04:09;18.27;;;6.18;;
73980;SDS011;62348;51.412;5.436;2023-04-25T04:06:34;15.98;;;5.85;;
73980;SDS011;62348;51.412;5.436;2023-04-25T04:09:01;13.75;;;6.43;;
73980;SDS011;62348;51.412;5.436;2023-04-25T04:11:27;15.27;;;5.72;;
73980;SDS011;62348;51.412;5.436;2023-04-25T04:13:52;18.40;;;6.85;;
73980;SDS011;62348;51.412;5.436;2023-04-25T04:16:18;15.55;;;6.53;;
73980;SDS011;62348;51.412;5.436;2023-04-25T04:18:44;23.50;;;7.43;;
73980;SDS011;62348;51.412;5.436;2023-04-25T04:21:10;24.52;;;7.80;;
73980;SDS011;62348;51.412;5.436;2023-04-25T04:23:35;25.92;;;9.15;;
73980;SDS011;62348;51.412;5.436;2023-04-25T04:26:02;16.63;;;8.15;;
73980;SDS011;62348;51.412;5.436;2023-04-25T04:28:28;17.60;;;6.53;;
73980;SDS011;62348;51.412;5.436;2023-04-25T04:30:53;16.98;;;7.40;;
73980;SDS011;62348;51.412;5.436;2023-04-25T04:33:18;19.05;;;7.45;;
73980;SDS011;62348;51.412;5.436;2023-04-25T04:35:44;18.35;;;6.95;;
73980;SDS011;62348;51.412;5.436;2023-04-25T04:38:11;16.10;;;6.95;;
73980;SDS011;62348;51.412;5.436;2023-04-25T04:40:40;19.92;;;7.28;;
73980;SDS011;62348;51.412;5.436;2023-04-25T04:43:06;14.93;;;5.95;;
73980;SDS011;62348;51.412;5.436;2023-04-25T04:45:33;21.88;;;7.57;;
73980;SDS011;62348;51.412;5.436;2023-04-25T04:47:59;15.25;;;7.13;;
73980;SDS011;62348;51.412;5.436;2023-04-25T04:50:24;18.95;;;6.03;;
73980;SDS011;62348;51.412;5.436;2023-04-25T04:52:51;20.35;;;6.75;;
73980;SDS011;62348;51.412;5.436;2023-04-25T04:55:16;19.90;;;6.40;;
73980;SDS011;62348;51.412;5.436;2023-04-25T04:57:42;20.38;;;6.75;;
73980;SDS011;62348;51.412;5.436;2023-04-25T05:00:07;16.60;;;6.45;;
73980;SDS011;62348;51.412;5.436;2023-04-25T05:02:36;24.85;;;6.57;;
73980;SDS011;62348;51.412;5.436;2023-04-25T05:05:02;19.58;;;8.32;;
73980;SDS011;62348;51.412;5.436;2023-04-25T05:07:28;19.75;;;6.47;;
73980;SDS011;62348;51.412;5.436;2023-04-25T05:09:53;19.30;;;6.32;;
73980;SDS011;62348;51.412;5.436;2023-04-25T05:12:19;17.27;;;5.50;;
73980;SDS011;62348;51.412;5.436;2023-04-25T05:14:44;19.70;;;6.80;;
73980;SDS011;62348;51.412;5.436;2023-04-25T05:17:09;20.30;;;6.30;;
73980;SDS011;62348;51.412;5.436;2023-04-25T05:19:35;22.13;;;5.90;;
73980;SDS011;62348;51.412;5.436;2023-04-25T05:22:00;12.02;;;6.28;;
73980;SDS011;62348;51.412;5.436;2023-04-25T05:24:26;20.27;;;6.78;;
73980;SDS011;62348;51.412;5.436;2023-04-25T05:26:52;17.33;;;5.90;;
73980;SDS011;62348;51.412;5.436;2023-04-25T05:29:18;21.50;;;6.13;;
73980;SDS011;62348;51.412;5.436;2023-04-25T05:31:43;14.98;;;6.50;;
73980;SDS011;62348;51.412;5.436;2023-04-25T05:34:09;20.20;;;5.93;;
73980;SDS011;62348;51.412;5.436;2023-04-25T05:36:34;19.58;;;6.18;;
73980;SDS011;62348;51.412;5.436;2023-04-25T05:39:00;24.42;;;6.55;;
73980;SDS011;62348;51.412;5.436;2023-04-25T05:41:25;16.75;;;7.30;;
73980;SDS011;62348;51.412;5.436;2023-04-25T05:43:51;21.63;;;6.70;;
73980;SDS011;62348;51.412;5.436;2023-04-25T05:46:16;20.75;;;6.38;;
73980;SDS011;62348;51.412;5.436;2023-04-25T05:48:44;20.73;;;6.50;;
73980;SDS011;62348;51.412;5.436;2023-04-25T05:51:10;27.10;;;6.68;;
73980;SDS011;62348;51.412;5.436;2023-04-25T05:53:35;17.88;;;6.60;;
73980;SDS011;62348;51.412;5.436;2023-04-25T05:56:01;22.45;;;5.88;;
73980;SDS011;62348;51.412;5.436;2023-04-25T05:58:26;22.27;;;6.85;;
73980;SDS011;62348;51.412;5.436;2023-04-25T06:00:52;24.98;;;7.55;;
73980;SDS011;62348;51.412;5.436;2023-04-25T06:03:17;19.00;;;6.45;;
73980;SDS011;62348;51.412;5.436;2023-04-25T06:05:43;19.50;;;5.93;;
73980;SDS011;62348;51.412;5.436;2023-04-25T06:08:09;23.35;;;7.07;;
73980;SDS011;62348;51.412;5.436;2023-04-25T06:10:35;24.92;;;6.95;;
73980;SDS011;62348;51.412;5.436;2023-04-25T06:13:01;18.85;;;6.22;;
73980;SDS011;62348;51.412;5.436;2023-04-25T06:15:27;20.70;;;6.82;;
73980;SDS011;62348;51.412;5.436;2023-04-25T06:17:52;17.45;;;6.38;;
73980;SDS011;62348;51.412;5.436;2023-04-25T06:20:18;18.17;;;6.63;;
73980;SDS011;62348;51.412;5.436;2023-04-25T06:22:47;24.45;;;6.15;;
73980;SDS011;62348;51.412;5.436;2023-04-25T06:25:13;23.02;;;6.45;;
73980;SDS011;62348;51.412;5.436;2023-04-25T06:27:38;21.08;;;6.45;;
73980;SDS011;62348;51.412;5.436;2023-04-25T06:30:04;21.38;;;6.53;;
73980;SDS011;62348;51.412;5.436;2023-04-25T06:32:30;17.85;;;6.47;;
73980;SDS011;62348;51.412;5.436;2023-04-25T06:34:55;18.02;;;5.88;;
73980;SDS011;62348;51.412;5.436;2023-04-25T06:37:21;18.80;;;6.38;;
73980;SDS011;62348;51.412;5.436;2023-04-25T06:39:46;16.63;;;5.75;;
73980;SDS011;62348;51.412;5.436;2023-04-25T06:42:12;19.67;;;5.20;;
73980;SDS011;62348;51.412;5.436;2023-04-25T06:44:37;13.82;;;4.72;;
73980;SDS011;62348;51.412;5.436;2023-04-25T06:47:02;23.08;;;5.90;;
73980;SDS011;62348;51.412;5.436;2023-04-25T06:49:28;10.73;;;4.00;;
73980;SDS011;62348;51.412;5.436;2023-04-25T06:51:53;10.77;;;4.22;;
73980;SDS011;62348;51.412;5.436;2023-04-25T06:54:19;15.27;;;5.10;;
73980;SDS011;62348;51.412;5.436;2023-04-25T06:56:44;16.85;;;5.35;;
73980;SDS011;62348;51.412;5.436;2023-04-25T06:59:10;15.57;;;3.72;;
73980;SDS011;62348;51.412;5.436;2023-04-25T07:01:35;9.02;;;3.33;;
73980;SDS011;62348;51.412;5.436;2023-04-25T07:04:00;12.32;;;3.35;;
73980;SDS011;62348;51.412;5.436;2023-04-25T07:06:26;10.07;;;3.15;;
73980;SDS011;62348;51.412;5.436;2023-04-25T07:08:52;8.10;;;2.47;;
73980;SDS011;62348;51.412;5.436;2023-04-25T07:11:18;8.43;;;2.40;;
73980;SDS011;62348;51.412;5.436;2023-04-25T07:13:43;8.75;;;2.35;;
73980;SDS011;62348;51.412;5.436;2023-04-25T07:16:09;11.75;;;3.65;;
73980;SDS011;62348;51.412;5.436;2023-04-25T07:18:34;12.98;;;2.78;;
73980;SDS011;62348;51.412;5.436;2023-04-25T07:21:00;9.95;;;2.17;;
73980;SDS011;62348;51.412;5.436;2023-04-25T07:23:25;7.85;;;2.50;;
73980;SDS011;62348;51.412;5.436;2023-04-25T07:25:51;9.43;;;2.28;;
73980;SDS011;62348;51.412;5.436;2023-04-25T07:28:16;8.38;;;2.13;;
73980;SDS011;62348;51.412;5.436;2023-04-25T07:30:41;13.48;;;2.33;;
73980;SDS011;62348;51.412;5.436;2023-04-25T07:33:07;7.88;;;2.42;;
73980;SDS011;62348;51.412;5.436;2023-04-25T07:35:32;7.00;;;1.90;;
73980;SDS011;62348;51.412;5.436;2023-04-25T07:37:58;11.98;;;3.13;;
73980;SDS011;62348;51.412;5.436;2023-04-25T07:40:24;6.80;;;1.80;;
73980;SDS011;62348;51.412;5.436;2023-04-25T07:42:49;8.30;;;2.78;;
73980;SDS011;62348;51.412;5.436;2023-04-25T07:45:14;8.57;;;1.92;;
73980;SDS011;62348;51.412;5.436;2023-04-25T07:47:40;9.00;;;1.90;;
73980;SDS011;62348;51.412;5.436;2023-04-25T07:50:06;6.68;;;1.80;;
73980;SDS011;62348;51.412;5.436;2023-04-25T07:52:32;7.60;;;1.95;;
73980;SDS011;62348;51.412;5.436;2023-04-25T07:54:57;5.00;;;1.50;;
73980;SDS011;62348;51.412;5.436;2023-04-25T07:57:23;5.45;;;1.90;;
73980;SDS011;62348;51.412;5.436;2023-04-25T07:59:49;7.00;;;1.70;;
73980;SDS011;62348;51.412;5.436;2023-04-25T08:02:14;8.57;;;2.47;;
73980;SDS011;62348;51.412;5.436;2023-04-25T08:04:40;8.23;;;2.65;;
73980;SDS011;62348;51.412;5.436;2023-04-25T08:07:05;7.20;;;1.42;;
73980;SDS011;62348;51.412;5.436;2023-04-25T08:09:31;7.43;;;2.25;;
73980;SDS011;62348;51.412;5.436;2023-04-25T08:11:59;7.15;;;2.33;;
73980;SDS011;62348;51.412;5.436;2023-04-25T08:14:25;10.32;;;2.20;;
73980;SDS011;62348;51.412;5.436;2023-04-25T08:16:51;7.50;;;1.67;;
73980;SDS011;62348;51.412;5.436;2023-04-25T08:19:16;6.88;;;1.77;;
73980;SDS011;62348;51.412;5.436;2023-04-25T08:21:42;6.28;;;2.28;;
73980;SDS011;62348;51.412;5.436;2023-04-25T08:24:07;9.98;;;1.65;;
73980;SDS011;62348;51.412;5.436;2023-04-25T08:26:32;4.30;;;1.85;;
73980;SDS011;62348;51.412;5.436;2023-04-25T08:28:59;8.57;;;2.15;;
73980;SDS011;62348;51.412;5.436;2023-04-25T08:31:25;7.05;;;2.10;;
73980;SDS011;62348;51.412;5.436;2023-04-25T08:33:50;8.95;;;1.67;;
73980;SDS011;62348;51.412;5.436;2023-04-25T08:36:16;6.15;;;1.85;;
73980;SDS011;62348;51.412;5.436;2023-04-25T08:38:42;6.88;;;2.55;;
73980;SDS011;62348;51.412;5.436;2023-04-25T08:41:08;9.70;;;2.13;;
73980;SDS011;62348;51.412;5.436;2023-04-25T08:43:35;8.50;;;2.28;;
73980;SDS011;62348;51.412;5.436;2023-04-25T08:46:02;8.63;;;1.75;;
73980;SDS011;62348;51.412;5.436;2023-04-25T08:48:28;14.27;;;3.00;;
73980;SDS011;62348;51.412;5.436;2023-04-25T08:50:57;6.32;;;1.60;;
73980;SDS011;62348;51.412;5.436;2023-04-25T08:53:30;8.57;;;2.22;;
73980;SDS011;62348;51.412;5.436;2023-04-25T08:55:57;9.30;;;2.30;;
73980;SDS011;62348;51.412;5.436;2023-04-25T08:58:25;13.70;;;2.72;;
73980;SDS011;62348;51.412;5.436;2023-04-25T09:00:50;10.73;;;2.95;;
73980;SDS011;62348;51.412;5.436;2023-04-25T09:03:17;7.28;;;1.75;;
73980;SDS011;62348;51.412;5.436;2023-04-25T09:05:42;10.18;;;2.05;;
73980;SDS011;62348;51.412;5.436;2023-04-25T09:08:08;11.13;;;2.22;;
73980;SDS011;62348;51.412;5.436;2023-04-25T09:10:34;11.35;;;3.28;;
73980;SDS011;62348;51.412;5.436;2023-04-25T09:13:10;10.52;;;2.33;;
73980;SDS011;62348;51.412;5.436;2023-04-25T09:15:52;14.43;;;2.15;;
73980;SDS011;62348;51.412;5.436;2023-04-25T09:20:55;9.45;;;1.80;;
73980;SDS011;62348;51.412;5.436;2023-04-25T09:23:22;11.15;;;2.17;;
73980;SDS011;62348;51.412;5.436;2023-04-25T09:25:49;11.85;;;2.80;;
73980;SDS011;62348;51.412;5.436;2023-04-25T09:28:27;9.38;;;1.52;;
73980;SDS011;62348;51.412;5.436;2023-04-25T09:30:56;6.60;;;1.70;;
73980;SDS011;62348;51.412;5.436;2023-04-25T09:33:32;4.15;;;1.42;;
73980;SDS011;62348;51.412;5.436;2023-04-25T09:36:09;8.43;;;1.60;;
73980;SDS011;62348;51.412;5.436;2023-04-25T09:38:45;9.30;;;1.95;;
73980;SDS011;62348;51.412;5.436;2023-04-25T09:41:11;7.10;;;1.63;;
73980;SDS011;62348;51.412;5.436;2023-04-25T09:43:37;7.20;;;1.80;;
73980;SDS011;62348;51.412;5.436;2023-04-25T09:46:12;7.68;;;1.65;;
73980;SDS011;62348;51.412;5.436;2023-04-25T09:48:38;5.60;;;2.13;;
73980;SDS011;62348;51.412;5.436;2023-04-25T09:51:13;7.50;;;1.90;;
73980;SDS011;62348;51.412;5.436;2023-04-25T09:53:39;7.35;;;1.50;;
73980;SDS011;62348;51.412;5.436;2023-04-25T09:56:07;5.30;;;1.58;;
73980;SDS011;62348;51.412;5.436;2023-04-25T09:58:34;6.30;;;1.65;;
73980;SDS011;62348;51.412;5.436;2023-04-25T10:01:01;4.85;;;1.83;;
73980;SDS011;62348;51.412;5.436;2023-04-25T10:03:32;8.32;;;2.20;;
73980;SDS011;62348;51.412;5.436;2023-04-25T10:06:02;7.30;;;1.75;;
73980;SDS011;62348;51.412;5.436;2023-04-25T10:08:32;7.47;;;1.30;;
73980;SDS011;62348;51.412;5.436;2023-04-25T10:11:06;8.00;;;2.22;;
73980;SDS011;62348;51.412;5.436;2023-04-25T10:13:33;4.32;;;1.65;;
73980;SDS011;62348;51.412;5.436;2023-04-25T10:16:00;3.00;;;1.50;;
73980;SDS011;62348;51.412;5.436;2023-04-25T10:18:27;7.32;;;1.70;;
73980;SDS011;62348;51.412;5.436;2023-04-25T10:20:57;8.25;;;2.72;;
73980;SDS011;62348;51.412;5.436;2023-04-25T10:23:24;4.53;;;1.70;;
73980;SDS011;62348;51.412;5.436;2023-04-25T10:25:51;4.55;;;1.65;;
73980;SDS011;62348;51.412;5.436;2023-04-25T10:28:17;9.63;;;2.20;;
73980;SDS011;62348;51.412;5.436;2023-04-25T10:31:02;8.05;;;2.08;;
73980;SDS011;62348;51.412;5.436;2023-04-25T10:33:36;9.13;;;2.25;;
73980;SDS011;62348;51.412;5.436;2023-04-25T10:36:10;5.20;;;1.45;;
73980;SDS011;62348;51.412;5.436;2023-04-25T10:38:47;8.65;;;1.73;;
73980;SDS011;62348;51.412;5.436;2023-04-25T10:41:17;7.43;;;1.35;;
73980;SDS011;62348;51.412;5.436;2023-04-25T10:43:46;5.93;;;1.65;;
73980;SDS011;62348;51.412;5.436;2023-04-25T10:48:43;9.15;;;2.15;;
73980;SDS011;62348;51.412;5.436;2023-04-25T10:51:12;9.50;;;2.25;;
73980;SDS011;62348;51.412;5.436;2023-04-25T10:56:20;6.82;;;1.85;;
73980;SDS011;62348;51.412;5.436;2023-04-25T10:58:49;3.75;;;1.52;;
73980;SDS011;62348;51.412;5.436;2023-04-25T11:01:15;6.35;;;1.52;;
73980;SDS011;62348;51.412;5.436;2023-04-25T11:03:45;3.22;;;1.50;;
73980;SDS011;62348;51.412;5.436;2023-04-25T11:06:17;5.07;;;1.35;;
73980;SDS011;62348;51.412;5.436;2023-04-25T11:08:51;8.23;;;1.80;;
73980;SDS011;62348;51.412;5.436;2023-04-25T11:11:19;2.40;;;1.27;;
73980;SDS011;62348;51.412;5.436;2023-04-25T11:13:51;3.42;;;1.70;;
73980;SDS011;62348;51.412;5.436;2023-04-25T11:16:17;6.75;;;1.77;;
73980;SDS011;62348;51.412;5.436;2023-04-25T11:18:43;7.15;;;1.70;;
73980;SDS011;62348;51.412;5.436;2023-04-25T11:21:09;6.20;;;1.60;;
73980;SDS011;62348;51.412;5.436;2023-04-25T11:23:35;6.43;;;1.90;;
73980;SDS011;62348;51.412;5.436;2023-04-25T11:26:01;8.23;;;1.88;;
73980;SDS011;62348;51.412;5.436;2023-04-25T11:28:28;7.05;;;1.90;;
73980;SDS011;62348;51.412;5.436;2023-04-25T11:30:53;8.32;;;2.38;;
73980;SDS011;62348;51.412;5.436;2023-04-25T11:33:22;7.28;;;1.58;;
73980;SDS011;62348;51.412;5.436;2023-04-25T11:35:49;4.03;;;1.70;;
73980;SDS011;62348;51.412;5.436;2023-04-25T11:38:14;6.63;;;2.08;;
73980;SDS011;62348;51.412;5.436;2023-04-25T11:40:40;8.70;;;1.60;;
73980;SDS011;62348;51.412;5.436;2023-04-25T11:43:05;6.57;;;1.23;;
73980;SDS011;62348;51.412;5.436;2023-04-25T11:45:32;5.88;;;1.80;;
73980;SDS011;62348;51.412;5.436;2023-04-25T11:47:57;8.48;;;2.10;;
73980;SDS011;62348;51.412;5.436;2023-04-25T11:50:23;4.80;;;1.33;;
73980;SDS011;62348;51.412;5.436;2023-04-25T11:52:48;6.75;;;1.80;;
73980;SDS011;62348;51.412;5.436;2023-04-25T11:55:16;4.18;;;1.02;;
73980;SDS011;62348;51.412;5.436;2023-04-25T11:57:43;5.90;;;1.27;;
73980;SDS011;62348;51.412;5.436;2023-04-25T12:00:13;3.58;;;1.00;;
73980;SDS011;62348;51.412;5.436;2023-04-25T12:02:42;4.63;;;1.98;;
73980;SDS011;62348;51.412;5.436;2023-04-25T12:05:09;2.72;;;0.90;;
73980;SDS011;62348;51.412;5.436;2023-04-25T12:07:36;7.32;;;1.48;;
73980;SDS011;62348;51.412;5.436;2023-04-25T12:10:09;3.28;;;1.27;;
73980;SDS011;62348;51.412;5.436;2023-04-25T12:12:37;5.07;;;1.38;;
73980;SDS011;62348;51.412;5.436;2023-04-25T12:15:10;4.38;;;1.20;;
73980;SDS011;62348;51.412;5.436;2023-04-25T12:17:40;5.72;;;1.80;;
73980;SDS011;62348;51.412;5.436;2023-04-25T12:20:07;5.78;;;1.27;;
73980;SDS011;62348;51.412;5.436;2023-04-25T12:22:39;5.15;;;1.40;;
73980;SDS011;62348;51.412;5.436;2023-04-25T12:25:09;6.78;;;1.50;;
73980;SDS011;62348;51.412;5.436;2023-04-25T12:27:36;4.25;;;1.08;;
73980;SDS011;62348;51.412;5.436;2023-04-25T12:30:02;6.88;;;1.20;;
73980;SDS011;62348;51.412;5.436;2023-04-25T12:32:28;5.13;;;1.45;;
73980;SDS011;62348;51.412;5.436;2023-04-25T12:34:54;2.15;;;1.17;;
73980;SDS011;62348;51.412;5.436;2023-04-25T12:37:19;7.18;;;1.60;;
73980;SDS011;62348;51.412;5.436;2023-04-25T12:39:45;3.33;;;1.10;;
73980;SDS011;62348;51.412;5.436;2023-04-25T12:42:11;6.13;;;2.10;;
73980;SDS011;62348;51.412;5.436;2023-04-25T12:44:39;6.63;;;1.45;;
73980;SDS011;62348;51.412;5.436;2023-04-25T12:47:05;5.78;;;1.33;;
73980;SDS011;62348;51.412;5.436;2023-04-25T12:49:31;3.72;;;1.00;;
73980;SDS011;62348;51.412;5.436;2023-04-25T12:51:57;2.05;;;0.90;;
73980;SDS011;62348;51.412;5.436;2023-04-25T12:54:22;5.40;;;1.25;;
73980;SDS011;62348;51.412;5.436;2023-04-25T12:56:48;7.15;;;1.73;;
73980;SDS011;62348;51.412;5.436;2023-04-25T12:59:15;4.68;;;1.00;;
73980;SDS011;62348;51.412;5.436;2023-04-25T13:01:40;5.80;;;1.30;;
73980;SDS011;62348;51.412;5.436;2023-04-25T13:04:06;7.85;;;1.20;;
73980;SDS011;62348;51.412;5.436;2023-04-25T13:06:31;2.50;;;0.90;;
73980;SDS011;62348;51.412;5.436;2023-04-25T13:08:56;4.40;;;1.05;;
73980;SDS011;62348;51.412;5.436;2023-04-25T13:11:22;4.72;;;1.55;;
73980;SDS011;62348;51.412;5.436;2023-04-25T13:13:47;4.55;;;1.00;;
73980;SDS011;62348;51.412;5.436;2023-04-25T13:16:13;4.00;;;0.98;;
73980;SDS011;62348;51.412;5.436;2023-04-25T13:18:39;2.42;;;0.90;;
73980;SDS011;62348;51.412;5.436;2023-04-25T13:21:05;6.22;;;1.00;;
73980;SDS011;62348;51.412;5.436;2023-04-25T13:23:30;4.05;;;1.40;;
73980;SDS011;62348;51.412;5.436;2023-04-25T13:25:56;3.60;;;0.98;;
73980;SDS011;62348;51.412;5.436;2023-04-25T13:28:25;6.18;;;1.02;;
73980;SDS011;62348;51.412;5.436;2023-04-25T13:30:51;5.28;;;1.80;;
73980;SDS011;62348;51.412;5.436;2023-04-25T13:33:16;5.13;;;1.20;;
73980;SDS011;62348;51.412;5.436;2023-04-25T13:35:42;6.60;;;1.17;;
73980;SDS011;62348;51.412;5.436;2023-04-25T13:38:08;3.70;;;1.02;;
73980;SDS011;62348;51.412;5.436;2023-04-25T13:40:34;4.40;;;1.10;;
73980;SDS011;62348;51.412;5.436;2023-04-25T13:43:00;4.90;;;1.13;;
73980;SDS011;62348;51.412;5.436;2023-04-25T13:45:26;7.90;;;1.10;;
73980;SDS011;62348;51.412;5.436;2023-04-25T13:47:52;4.10;;;1.15;;
73980;SDS011;62348;51.412;5.436;2023-04-25T13:50:17;3.35;;;1.20;;
73980;SDS011;62348;51.412;5.436;2023-04-25T13:52:43;5.63;;;1.02;;
73980;SDS011;62348;51.412;5.436;2023-04-25T13:55:08;3.95;;;1.00;;
73980;SDS011;62348;51.412;5.436;2023-04-25T13:57:35;5.82;;;1.48;;
73980;SDS011;62348;51.412;5.436;2023-04-25T14:00:01;9.13;;;1.27;;
73980;SDS011;62348;51.412;5.436;2023-04-25T14:02:36;5.90;;;1.23;;
73980;SDS011;62348;51.412;5.436;2023-04-25T14:05:03;4.75;;;1.42;;
73980;SDS011;62348;51.412;5.436;2023-04-25T14:07:29;2.75;;;1.35;;
73980;SDS011;62348;51.412;5.436;2023-04-25T14:09:55;3.03;;;1.52;;
73980;SDS011;62348;51.412;5.436;2023-04-25T14:12:22;5.28;;;1.20;;
73980;SDS011;62348;51.412;5.436;2023-04-25T14:14:48;7.55;;;1.45;;
73980;SDS011;62348;51.412;5.436;2023-04-25T14:17:13;4.68;;;0.95;;
73980;SDS011;62348;51.412;5.436;2023-04-25T14:19:38;4.65;;;1.15;;
73980;SDS011;62348;51.412;5.436;2023-04-25T14:22:08;7.53;;;1.48;;
73980;SDS011;62348;51.412;5.436;2023-04-25T14:24:34;5.88;;;1.40;;
73980;SDS011;62348;51.412;5.436;2023-04-25T14:26:59;7.47;;;1.65;;
73980;SDS011;62348;51.412;5.436;2023-04-25T14:29:25;9.82;;;1.50;;
73980;SDS011;62348;51.412;5.436;2023-04-25T14:31:51;3.33;;;1.60;;
73980;SDS011;62348;51.412;5.436;2023-04-25T14:34:16;4.15;;;1.23;;
73980;SDS011;62348;51.412;5.436;2023-04-25T14:36:42;4.63;;;1.02;;
73980;SDS011;62348;51.412;5.436;2023-04-25T14:39:07;7.65;;;1.30;;
73980;SDS011;62348;51.412;5.436;2023-04-25T14:41:33;6.28;;;1.38;;
73980;SDS011;62348;51.412;5.436;2023-04-25T14:43:59;4.13;;;1.67;;